Time;durP1;ratioP1;P1;durP2;ratioP2;P2;SDS_P1;SDS_P2;PMS_P1;PMS_P2;Temp;Humidity;BMP_temperature;BMP_pressure;BME280_temperature;BME280_humidity;BME280_pressure;Samples;Min_cycle;Max_cycle;Signal;HPM_P1;HPM_P2
2024/03/19 00:02:15;;;;;;;0.90;0.80;;;8.60;99.90;;;;;;5120769;28;20814;-84
2024/03/19 00:04:42;;;;;;;1.67;0.80;;;8.50;99.90;;;;;;5120435;28;20450;-84
2024/03/19 00:07:09;;;;;;;1.03;0.87;;;8.50;99.90;;;;;;5119031;28;20439;-84
2024/03/19 00:09:36;;;;;;;1.27;0.70;;;8.40;99.90;;;;;;5120096;28;20456;-84
2024/03/19 00:12:04;;;;;;;1.00;0.83;;;8.40;99.90;;;;;;5119362;28;20494;-84
2024/03/19 00:14:31;;;;;;;3.37;1.80;;;8.40;99.90;;;;;;5119232;28;20473;-84
2024/03/19 00:16:57;;;;;;;1.30;0.97;;;8.30;99.90;;;;;;5119216;28;20443;-84
2024/03/19 00:19:24;;;;;;;1.83;1.10;;;8.30;99.90;;;;;;5118877;28;20463;-84
2024/03/19 00:21:51;;;;;;;2.50;1.37;;;8.30;99.90;;;;;;5118114;28;20955;-83
2024/03/19 00:24:19;;;;;;;3.20;1.67;;;8.30;99.90;;;;;;5121410;28;20451;-84
2024/03/19 00:26:45;;;;;;;1.33;0.90;;;8.30;99.90;;;;;;5123704;28;20420;-84
2024/03/19 00:29:13;;;;;;;5.70;1.60;;;8.30;99.90;;;;;;5121789;28;20463;-84
2024/03/19 00:31:40;;;;;;;0.87;0.87;;;8.30;99.90;;;;;;5119889;28;20486;-84
2024/03/19 00:34:08;;;;;;;1.20;1.00;;;8.20;99.90;;;;;;5121553;28;20924;-84
2024/03/19 00:36:35;;;;;;;2.40;1.30;;;8.30;99.90;;;;;;5121172;28;20451;-84
2024/03/19 00:39:09;;;;;;;1.40;1.30;;;8.30;99.90;;;;;;5120697;28;20462;-84
2024/03/19 00:41:36;;;;;;;0.93;0.83;;;8.30;99.90;;;;;;5120260;28;20430;-84
2024/03/19 00:44:04;;;;;;;1.13;1.03;;;8.30;99.90;;;;;;5120305;28;20814;-84
2024/03/19 00:46:32;;;;;;;1.80;1.30;;;8.30;99.90;;;;;;5119766;28;20447;-84
2024/03/19 00:48:59;;;;;;;0.90;0.90;;;8.20;99.90;;;;;;5119809;28;20538;-84
2024/03/19 00:51:26;;;;;;;1.67;0.87;;;8.20;99.90;;;;;;5120004;28;20506;-84
2024/03/19 00:53:53;;;;;;;1.40;1.30;;;8.20;99.90;;;;;;5119363;28;20451;-84
2024/03/19 00:56:19;;;;;;;1.47;1.17;;;8.10;99.90;;;;;;5118250;28;20439;-84
2024/03/19 00:58:46;;;;;;;1.80;1.10;;;8.10;99.90;;;;;;5118083;28;20491;-84
2024/03/19 01:01:14;;;;;;;0.90;0.90;;;8.00;99.90;;;;;;5119245;28;20447;-84
2024/03/19 01:03:42;;;;;;;1.33;1.00;;;7.80;99.90;;;;;;5118270;28;20473;-83
2024/03/19 01:06:09;;;;;;;1.13;1.00;;;7.90;99.90;;;;;;5117742;28;20455;-83
2024/03/19 01:08:37;;;;;;;1.53;1.23;;;7.90;99.90;;;;;;5116875;28;20481;-83
2024/03/19 01:11:04;;;;;;;2.20;1.23;;;7.80;99.90;;;;;;5117189;28;20494;-83
2024/03/19 01:13:31;;;;;;;1.57;1.27;;;7.80;99.90;;;;;;5117140;28;20443;-84
2024/03/19 01:15:58;;;;;;;1.77;1.63;;;7.80;99.90;;;;;;5116993;28;20447;-83
2024/03/19 01:18:25;;;;;;;3.40;1.80;;;7.70;99.90;;;;;;5117060;28;20463;-83
2024/03/19 01:20:53;;;;;;;1.47;1.37;;;7.70;99.90;;;;;;5115667;28;20447;-82
2024/03/19 01:23:20;;;;;;;3.47;1.40;;;7.70;99.90;;;;;;5116207;28;20447;-83
2024/03/19 01:25:47;;;;;;;1.97;1.70;;;7.70;99.90;;;;;;5115934;28;20451;-82
2024/03/19 01:28:15;;;;;;;2.10;1.60;;;7.80;99.90;;;;;;5117656;28;20471;-83
2024/03/19 01:30:41;;;;;;;2.77;1.90;;;7.80;99.90;;;;;;5116538;28;20486;-83
2024/03/19 01:33:08;;;;;;;2.33;1.53;;;7.80;99.90;;;;;;5117240;28;20524;-83
2024/03/19 01:35:35;;;;;;;2.70;1.30;;;7.80;99.90;;;;;;5116982;28;20443;-84
2024/03/19 01:38:03;;;;;;;2.17;1.50;;;7.80;99.90;;;;;;5116375;28;20478;-83
2024/03/19 01:40:30;;;;;;;2.67;1.33;;;7.90;99.90;;;;;;5115730;28;20438;-83
2024/03/19 01:42:57;;;;;;;3.43;1.20;;;7.80;99.90;;;;;;5115938;28;20437;-83
2024/03/19 01:45:24;;;;;;;1.50;1.30;;;7.80;99.90;;;;;;5118790;28;20439;-83
2024/03/19 01:47:51;;;;;;;0.70;0.70;;;7.70;99.90;;;;;;5118655;28;20462;-83
2024/03/19 01:50:19;;;;;;;1.57;0.90;;;7.60;99.90;;;;;;5118226;28;20443;-83
2024/03/19 01:52:52;;;;;;;1.03;0.93;;;7.60;99.90;;;;;;5119317;28;20483;-82
2024/03/19 01:55:23;;;;;;;2.10;1.43;;;7.60;99.90;;;;;;5119518;28;20848;-83
2024/03/19 01:57:52;;;;;;;0.97;0.87;;;7.70;99.90;;;;;;5118850;28;20475;-83
2024/03/19 02:00:19;;;;;;;4.03;1.00;;;7.60;99.90;;;;;;5119038;28;20436;-83
2024/03/19 02:02:45;;;;;;;1.43;1.30;;;7.50;99.90;;;;;;5120438;28;20950;-83
2024/03/19 02:05:12;;;;;;;1.00;0.87;;;7.40;99.90;;;;;;5121484;28;20443;-83
2024/03/19 02:07:39;;;;;;;2.60;1.10;;;7.40;99.90;;;;;;5123677;28;20463;-82
2024/03/19 02:10:09;;;;;;;1.63;1.40;;;7.40;99.90;;;;;;5126402;28;20470;-83
2024/03/19 02:12:37;;;;;;;5.27;2.40;;;7.40;99.90;;;;;;5124731;28;20987;-83
2024/03/19 02:15:05;;;;;;;2.30;1.20;;;7.30;99.90;;;;;;5124030;28;20447;-82
2024/03/19 02:17:31;;;;;;;1.30;1.20;;;7.30;99.90;;;;;;5126462;28;20994;-83
2024/03/19 02:19:58;;;;;;;1.90;0.93;;;7.30;99.90;;;;;;5125949;28;20453;-83
2024/03/19 02:22:29;;;;;;;2.33;1.47;;;7.30;99.90;;;;;;5124789;28;20446;-83
2024/03/19 02:24:56;;;;;;;1.20;1.10;;;7.30;99.90;;;;;;5123749;28;20473;-82
2024/03/19 02:27:23;;;;;;;1.40;0.90;;;7.30;99.90;;;;;;5123429;28;20454;-83
2024/03/19 02:29:50;;;;;;;1.63;1.07;;;7.30;99.90;;;;;;5119735;28;20826;-83
2024/03/19 02:32:16;;;;;;;0.97;0.90;;;7.40;99.90;;;;;;5120226;28;20986;-83
2024/03/19 02:34:43;;;;;;;1.47;1.37;;;7.40;99.90;;;;;;5120328;28;20450;-83
2024/03/19 02:37:10;;;;;;;2.30;1.43;;;7.50;99.90;;;;;;5119319;28;20432;-83
2024/03/19 02:39:38;;;;;;;1.40;1.20;;;7.40;99.90;;;;;;5120539;28;20455;-82
2024/03/19 02:42:05;;;;;;;1.70;1.60;;;7.40;99.90;;;;;;5122771;28;20447;-83
2024/03/19 02:44:32;;;;;;;3.63;1.30;;;7.40;99.90;;;;;;5123365;28;20439;-82
2024/03/19 02:46:58;;;;;;;1.90;0.90;;;7.30;99.90;;;;;;5125701;28;20454;-83
2024/03/19 02:49:25;;;;;;;1.73;1.60;;;7.30;99.90;;;;;;5126932;28;20460;-83
2024/03/19 02:51:52;;;;;;;3.30;1.33;;;7.30;99.90;;;;;;5129691;28;20470;-83
2024/03/19 02:54:19;;;;;;;1.03;1.03;;;7.20;99.90;;;;;;5131107;28;20444;-83
2024/03/19 02:56:47;;;;;;;1.93;1.53;;;7.20;99.90;;;;;;5138894;28;20441;-82
2024/03/19 02:59:14;;;;;;;1.80;1.10;;;7.20;99.90;;;;;;5136617;28;20485;-84
2024/03/19 03:01:40;;;;;;;1.07;1.00;;;7.10;99.90;;;;;;5137985;28;20461;-83
2024/03/19 03:04:07;;;;;;;0.80;0.80;;;7.10;99.90;;;;;;5139752;28;20454;-82
2024/03/19 03:06:34;;;;;;;2.00;1.80;;;7.00;99.90;;;;;;5140442;28;20526;-83
2024/03/19 03:09:02;;;;;;;1.20;1.10;;;7.00;99.90;;;;;;5139506;28;20531;-83
2024/03/19 03:11:29;;;;;;;0.87;0.87;;;6.90;99.90;;;;;;5140088;28;20475;-83
2024/03/19 03:13:57;;;;;;;1.70;1.10;;;6.90;99.90;;;;;;5140608;28;20439;-82
2024/03/19 03:16:24;;;;;;;1.60;1.30;;;6.90;99.90;;;;;;5140650;28;20451;-82
2024/03/19 03:18:51;;;;;;;0.87;0.80;;;6.80;99.90;;;;;;5139610;28;20471;-84
2024/03/19 03:21:18;;;;;;;0.60;0.60;;;6.80;99.90;;;;;;5140362;28;20451;-82
2024/03/19 03:23:45;;;;;;;1.53;1.00;;;6.80;99.90;;;;;;5141098;28;20490;-82
2024/03/19 03:26:13;;;;;;;1.77;1.10;;;6.80;99.90;;;;;;5140958;28;20431;-83
2024/03/19 03:28:40;;;;;;;0.73;0.70;;;6.80;99.90;;;;;;5139747;28;20471;-83
2024/03/19 03:31:08;;;;;;;1.03;1.00;;;6.80;99.90;;;;;;5140705;28;20477;-82
2024/03/19 03:33:35;;;;;;;2.03;0.90;;;6.90;99.90;;;;;;5141033;28;20431;-83
2024/03/19 03:36:02;;;;;;;0.80;0.80;;;6.80;99.90;;;;;;5140836;28;20415;-81
2024/03/19 03:38:29;;;;;;;0.60;0.60;;;7.00;99.90;;;;;;5140788;28;20455;-83
2024/03/19 03:40:56;;;;;;;0.93;0.60;;;6.90;99.90;;;;;;5140862;28;20433;-82
2024/03/19 03:43:23;;;;;;;2.17;1.70;;;6.80;99.90;;;;;;5140680;28;20490;-82
2024/03/19 03:45:50;;;;;;;1.20;0.80;;;6.80;99.90;;;;;;5140690;28;20415;-83
2024/03/19 03:48:19;;;;;;;2.00;1.30;;;6.70;99.90;;;;;;5140784;28;20477;-82
2024/03/19 03:50:45;;;;;;;1.03;0.83;;;6.70;99.90;;;;;;5140591;28;20426;-82
2024/03/19 03:53:13;;;;;;;0.80;0.80;;;6.70;99.90;;;;;;5140363;28;20494;-82
2024/03/19 03:55:40;;;;;;;1.00;0.97;;;6.70;99.90;;;;;;5140563;28;20427;-81
2024/03/19 03:58:07;;;;;;;1.43;1.33;;;6.60;99.90;;;;;;5140084;28;20455;-81
2024/03/19 04:00:34;;;;;;;1.10;1.00;;;6.60;99.90;;;;;;5140430;28;20423;-81
2024/03/19 04:03:02;;;;;;;1.30;1.23;;;6.60;99.90;;;;;;5140362;28;20482;-82
2024/03/19 04:05:30;;;;;;;2.67;1.20;;;6.60;99.90;;;;;;5140220;28;20423;-81
2024/03/19 04:07:58;;;;;;;1.27;1.00;;;6.50;99.90;;;;;;5140114;28;20462;-82
2024/03/19 04:10:26;;;;;;;1.43;1.27;;;6.50;99.90;;;;;;5140233;28;20427;-81
2024/03/19 04:12:54;;;;;;;2.10;1.30;;;6.40;99.90;;;;;;5140092;28;20463;-82
2024/03/19 04:15:21;;;;;;;2.07;1.00;;;6.40;99.90;;;;;;5140088;28;20419;-83
2024/03/19 04:17:48;;;;;;;0.93;0.90;;;6.40;99.90;;;;;;5139915;28;20443;-80
2024/03/19 04:20:16;;;;;;;0.87;0.70;;;6.40;99.90;;;;;;5139664;28;20446;-82
2024/03/19 04:22:45;;;;;;;0.90;0.60;;;6.40;99.90;;;;;;5140069;28;20443;-83
2024/03/19 04:25:12;;;;;;;0.67;0.53;;;6.50;99.90;;;;;;5140057;28;20449;-82
2024/03/19 04:27:39;;;;;;;0.80;0.80;;;6.50;99.90;;;;;;5139870;28;20439;-80
2024/03/19 04:30:07;;;;;;;0.50;0.50;;;6.50;99.90;;;;;;5139899;28;20430;-82
2024/03/19 04:32:34;;;;;;;1.30;0.90;;;6.50;99.90;;;;;;5139738;28;20462;-81
2024/03/19 04:35:01;;;;;;;1.10;1.00;;;6.50;99.90;;;;;;5139904;28;20478;-82
2024/03/19 04:37:28;;;;;;;1.17;1.07;;;6.40;99.90;;;;;;5139765;28;20416;-82
2024/03/19 04:39:57;;;;;;;0.80;0.80;;;6.50;99.90;;;;;;5139784;28;20470;-82
2024/03/19 04:42:24;;;;;;;1.47;1.17;;;6.50;99.90;;;;;;5139724;28;20439;-83
2024/03/19 04:44:51;;;;;;;1.90;1.27;;;6.60;99.90;;;;;;5139721;28;20419;-83
2024/03/19 04:47:19;;;;;;;0.73;0.73;;;6.60;99.90;;;;;;5139799;28;20403;-79
2024/03/19 04:49:46;;;;;;;1.40;1.30;;;6.60;99.90;;;;;;5139859;28;20482;-83
2024/03/19 04:52:13;;;;;;;1.07;0.70;;;6.80;99.90;;;;;;5139533;28;20466;-83
2024/03/19 04:54:40;;;;;;;0.90;0.87;;;6.70;99.90;;;;;;5139768;28;20415;-82
2024/03/19 04:57:10;;;;;;;0.60;0.60;;;6.70;99.90;;;;;;5139608;28;20464;-82
2024/03/19 04:59:37;;;;;;;1.53;0.90;;;6.80;99.90;;;;;;5139520;28;20459;-82
2024/03/19 05:02:04;;;;;;;2.30;0.80;;;6.70;99.90;;;;;;5139665;28;20462;-83
2024/03/19 05:04:31;;;;;;;2.03;1.20;;;6.70;99.90;;;;;;5139598;28;20422;-81
2024/03/19 05:06:58;;;;;;;1.27;1.10;;;6.70;99.90;;;;;;5139605;28;20442;-81
2024/03/19 05:09:26;;;;;;;2.10;1.00;;;6.70;99.90;;;;;;5139536;28;20475;-81
2024/03/19 05:11:53;;;;;;;1.33;1.10;;;6.70;99.90;;;;;;5139554;28;20484;-82
2024/03/19 05:14:21;;;;;;;2.17;1.33;;;6.80;99.90;;;;;;5139385;28;20427;-83
2024/03/19 05:16:48;;;;;;;2.60;1.47;;;6.80;99.90;;;;;;5139505;28;20415;-81
2024/03/19 05:19:15;;;;;;;1.20;1.00;;;6.80;99.90;;;;;;5140641;28;20463;-83
2024/03/19 05:21:41;;;;;;;2.53;1.27;;;6.70;99.90;;;;;;5142383;28;20466;-82
2024/03/19 05:24:08;;;;;;;1.23;1.17;;;6.80;99.90;;;;;;5140741;28;20451;-82
2024/03/19 05:26:35;;;;;;;3.00;1.50;;;6.80;99.90;;;;;;5141873;28;20541;-83
2024/03/19 05:29:02;;;;;;;2.30;1.67;;;6.80;99.90;;;;;;5139731;28;20978;-83
2024/03/19 05:31:31;;;;;;;4.20;1.70;;;6.80;99.90;;;;;;5139611;28;20538;-83
2024/03/19 05:33:58;;;;;;;2.87;1.90;;;6.90;99.90;;;;;;5137543;28;20438;-82
2024/03/19 05:36:26;;;;;;;0.97;0.93;;;6.80;99.90;;;;;;5137904;28;20451;-82
2024/03/19 05:38:53;;;;;;;4.00;1.27;;;6.80;99.90;;;;;;5134706;28;20455;-83
2024/03/19 05:41:20;;;;;;;0.97;0.97;;;6.80;99.90;;;;;;5137172;28;20453;-83
2024/03/19 05:43:49;;;;;;;1.97;1.27;;;6.70;99.90;;;;;;5139077;28;20443;-82
2024/03/19 05:46:16;;;;;;;1.80;1.20;;;6.80;99.90;;;;;;5139302;28;20462;-82
2024/03/19 05:48:44;;;;;;;1.27;0.97;;;6.70;99.90;;;;;;5141639;28;20471;-82
2024/03/19 05:51:12;;;;;;;2.70;1.87;;;6.70;99.90;;;;;;5142646;28;20419;-82
2024/03/19 05:53:39;;;;;;;1.53;1.07;;;6.70;99.90;;;;;;5142027;28;20474;-83
2024/03/19 05:56:08;;;;;;;1.50;1.17;;;6.70;99.90;;;;;;5142383;28;20455;-83
2024/03/19 05:58:35;;;;;;;1.20;1.07;;;6.80;99.90;;;;;;5141563;28;20466;-82
2024/03/19 06:01:02;;;;;;;2.10;1.20;;;6.80;99.90;;;;;;5142701;28;20455;-81
2024/03/19 06:03:31;;;;;;;2.60;1.37;;;6.80;99.90;;;;;;5142723;28;20434;-82
2024/03/19 06:06:09;;;;;;;1.50;1.40;;;6.80;99.90;;;;;;5142587;28;20439;-83
2024/03/19 06:08:36;;;;;;;0.80;0.80;;;6.70;99.90;;;;;;5141619;28;20462;-82
2024/03/19 06:11:04;;;;;;;1.07;1.07;;;6.80;99.90;;;;;;5139382;28;20446;-83
2024/03/19 06:13:31;;;;;;;2.00;1.50;;;6.80;99.90;;;;;;5132699;28;20483;-83
2024/03/19 06:15:58;;;;;;;1.97;1.67;;;6.80;99.90;;;;;;5132498;28;20447;-83
2024/03/19 06:18:25;;;;;;;1.67;1.57;;;6.90;99.90;;;;;;5128361;28;20451;-83
2024/03/19 06:20:52;;;;;;;2.73;1.33;;;7.10;99.90;;;;;;5123013;28;20447;-83
2024/03/19 06:23:20;;;;;;;1.30;1.20;;;7.20;99.90;;;;;;5120892;28;20474;-83
2024/03/19 06:25:46;;;;;;;1.47;0.83;;;7.40;99.90;;;;;;5119343;28;20443;-82
2024/03/19 06:28:14;;;;;;;1.10;1.03;;;7.50;99.90;;;;;;5117987;28;20474;-83
2024/03/19 06:30:41;;;;;;;1.10;1.00;;;7.70;99.90;;;;;;5118021;28;20477;-83
2024/03/19 06:33:07;;;;;;;1.40;1.30;;;8.00;99.90;;;;;;5119638;28;20477;-83
2024/03/19 06:35:34;;;;;;;3.33;2.30;;;8.30;99.90;;;;;;5121389;28;20802;-84
2024/03/19 06:38:02;;;;;;;2.20;1.97;;;8.40;99.90;;;;;;5122538;28;20474;-83
2024/03/19 06:40:31;;;;;;;3.57;1.90;;;8.40;99.90;;;;;;5121787;28;21017;-84
2024/03/19 06:42:57;;;;;;;6.10;4.03;;;8.30;99.90;;;;;;5121221;28;20932;-84
2024/03/19 06:45:26;;;;;;;6.00;2.47;;;8.20;99.90;;;;;;5121330;28;20447;-84
2024/03/19 06:47:53;;;;;;;2.57;1.93;;;8.30;99.90;;;;;;5121784;28;20558;-84
2024/03/19 06:50:20;;;;;;;4.50;2.20;;;8.30;99.90;;;;;;5122349;28;20443;-84
2024/03/19 06:52:46;;;;;;;1.27;0.80;;;8.20;99.90;;;;;;5121715;28;20535;-83
2024/03/19 06:55:15;;;;;;;1.80;1.13;;;8.20;99.90;;;;;;5120978;28;21077;-84
2024/03/19 06:57:43;;;;;;;0.87;0.87;;;8.20;99.90;;;;;;5121134;28;20463;-83
2024/03/19 07:00:13;;;;;;;1.77;1.30;;;8.20;99.90;;;;;;5121252;28;20420;-84
2024/03/19 07:02:41;;;;;;;5.30;2.37;;;8.30;99.90;;;;;;5120647;28;20797;-84
2024/03/19 07:05:08;;;;;;;1.47;1.33;;;8.40;99.90;;;;;;5120155;27;20443;-83
2024/03/19 07:07:35;;;;;;;4.10;1.47;;;8.50;99.90;;;;;;5120116;28;20462;-84
2024/03/19 07:10:02;;;;;;;1.97;1.17;;;8.80;99.90;;;;;;5120088;28;20508;-84
2024/03/19 07:12:29;;;;;;;0.80;0.73;;;9.10;99.90;;;;;;5119659;28;20473;-84
2024/03/19 07:15:00;;;;;;;0.80;0.70;;;9.30;99.90;;;;;;5118933;28;20442;-84
2024/03/19 07:17:30;;;;;;;0.70;0.70;;;9.20;99.90;;;;;;5119472;28;20464;-84
2024/03/19 07:19:58;;;;;;;1.67;1.10;;;9.20;99.90;;;;;;5119295;28;20451;-85
2024/03/19 07:22:25;;;;;;;6.73;0.70;;;9.50;99.90;;;;;;5119268;28;20439;-84
2024/03/19 07:24:52;;;;;;;1.63;0.97;;;9.70;99.90;;;;;;5119361;27;20492;-84
2024/03/19 07:27:19;;;;;;;0.70;0.70;;;10.00;99.90;;;;;;5118638;28;20447;-84
2024/03/19 07:29:46;;;;;;;0.90;0.90;;;10.20;99.90;;;;;;5118945;28;20451;-84
2024/03/19 07:32:14;;;;;;;2.00;1.00;;;10.30;99.90;;;;;;5118432;28;20496;-85
2024/03/19 07:34:41;;;;;;;1.37;1.00;;;10.30;99.90;;;;;;5118540;28;20807;-85
2024/03/19 07:37:10;;;;;;;0.97;0.97;;;10.10;99.90;;;;;;5119002;28;20478;-84
2024/03/19 07:39:37;;;;;;;0.83;0.77;;;10.10;99.90;;;;;;5120662;28;20471;-85
2024/03/19 07:42:04;;;;;;;0.80;0.80;;;10.10;99.90;;;;;;5124454;28;20451;-85
2024/03/19 07:44:31;;;;;;;1.10;1.00;;;9.90;99.90;;;;;;5122646;28;20439;-84
2024/03/19 07:46:58;;;;;;;0.60;0.60;;;10.00;99.90;;;;;;5119498;28;20426;-84
2024/03/19 07:49:26;;;;;;;0.73;0.73;;;10.20;99.90;;;;;;5117872;28;20471;-84
2024/03/19 07:51:53;;;;;;;1.60;1.00;;;10.40;99.90;;;;;;5117663;28;20416;-84
2024/03/19 07:54:26;;;;;;;1.13;1.03;;;10.80;99.90;;;;;;5118393;28;20547;-84
2024/03/19 07:56:53;;;;;;;3.00;0.83;;;11.10;99.90;;;;;;5117742;28;20439;-84
2024/03/19 07:59:20;;;;;;;2.13;1.30;;;11.50;99.90;;;;;;5117354;28;20486;-85
2024/03/19 08:01:48;;;;;;;1.60;1.10;;;11.70;99.90;;;;;;5126651;28;20445;-85
2024/03/19 08:04:15;;;;;;;1.03;0.93;;;11.90;99.90;;;;;;5120349;28;20449;-85
2024/03/19 08:06:44;;;;;;;1.37;1.00;;;12.10;99.90;;;;;;5120527;28;20997;-85
2024/03/19 08:09:11;;;;;;;1.37;1.20;;;12.10;99.90;;;;;;5120771;28;20520;-84
2024/03/19 08:11:38;;;;;;;1.13;1.03;;;12.10;99.90;;;;;;5120815;28;20454;-85
2024/03/19 08:14:05;;;;;;;1.37;0.80;;;12.60;99.90;;;;;;5120176;28;20478;-85
2024/03/19 08:16:32;;;;;;;1.87;1.17;;;12.90;99.90;;;;;;5120445;28;20443;-84
2024/03/19 08:19:00;;;;;;;1.17;0.90;;;13.20;99.90;;;;;;5120311;28;20994;-84
2024/03/19 08:21:27;;;;;;;0.97;0.80;;;13.00;99.90;;;;;;5121485;28;20484;-85
2024/03/19 08:23:55;;;;;;;1.30;1.00;;;13.00;99.90;;;;;;5121474;28;20440;-84
2024/03/19 08:26:22;;;;;;;1.40;1.30;;;13.00;99.90;;;;;;5119443;28;20486;-85
2024/03/19 08:28:49;;;;;;;1.90;1.30;;;13.00;99.90;;;;;;5119975;28;20466;-85
2024/03/19 08:31:15;;;;;;;1.37;1.27;;;13.00;99.90;;;;;;5122360;28;20443;-84
2024/03/19 08:33:42;;;;;;;1.60;1.30;;;13.10;99.90;;;;;;5119391;28;20510;-84
2024/03/19 08:36:10;;;;;;;2.30;1.20;;;13.20;99.90;;;;;;5118781;28;20434;-84
2024/03/19 08:38:37;;;;;;;2.10;1.27;;;13.20;99.90;;;;;;5120101;28;20467;-85
2024/03/19 08:41:06;;;;;;;1.80;1.60;;;13.20;99.90;;;;;;5118541;28;20488;-84
2024/03/19 08:43:32;;;;;;;1.70;1.50;;;13.20;99.90;;;;;;5118292;28;20442;-84
2024/03/19 08:45:59;;;;;;;1.37;1.20;;;13.20;99.90;;;;;;5118546;28;20443;-84
2024/03/19 08:48:26;;;;;;;1.90;1.80;;;13.40;99.90;;;;;;5119127;28;20459;-84
2024/03/19 08:50:53;;;;;;;1.87;1.40;;;13.60;99.90;;;;;;5119763;28;20445;-84
2024/03/19 08:53:21;;;;;;;1.13;1.10;;;13.80;99.90;;;;;;5120684;28;20524;-85
2024/03/19 08:55:56;;;;;;;1.30;1.20;;;14.10;99.90;;;;;;5124605;28;20439;-84
2024/03/19 08:58:24;;;;;;;1.10;1.00;;;14.30;99.90;;;;;;5123699;28;20470;-84
2024/03/19 09:00:51;;;;;;;0.87;0.87;;;14.50;99.90;;;;;;5124069;28;20449;-84
2024/03/19 09:03:17;;;;;;;0.80;0.80;;;14.50;99.90;;;;;;5122476;28;20449;-84
2024/03/19 09:05:44;;;;;;;5.90;1.10;;;14.60;99.90;;;;;;5122314;28;20443;-84
2024/03/19 09:08:11;;;;;;;1.30;0.80;;;14.60;99.90;;;;;;5121747;28;20463;-84
2024/03/19 09:10:38;;;;;;;1.27;1.03;;;14.80;99.90;;;;;;5122091;28;20442;-84
2024/03/19 09:13:05;;;;;;;1.00;0.80;;;14.90;99.90;;;;;;5122129;28;20475;-84
2024/03/19 09:15:33;;;;;;;6.97;1.73;;;15.00;99.90;;;;;;5122071;28;20805;-84
2024/03/19 09:18:00;;;;;;;1.30;1.07;;;15.00;99.90;;;;;;5122213;28;20451;-84
2024/03/19 09:20:26;;;;;;;0.83;0.83;;;15.30;99.90;;;;;;5122447;28;20454;-84
2024/03/19 09:22:53;;;;;;;1.43;0.90;;;15.50;99.90;;;;;;5122017;28;20939;-84
2024/03/19 09:25:20;;;;;;;0.80;0.80;;;16.40;99.90;;;;;;5121666;28;20457;-84
2024/03/19 09:27:47;;;;;;;0.93;0.93;;;17.50;99.90;;;;;;5121980;28;20769;-84
2024/03/19 09:30:13;;;;;;;2.10;0.80;;;18.40;99.90;;;;;;5122895;28;20435;-84
2024/03/19 09:32:42;;;;;;;1.73;1.10;;;19.00;99.90;;;;;;5121351;28;20447;-84
2024/03/19 09:35:09;;;;;;;1.03;0.97;;;19.50;99.90;;;;;;5121784;28;20493;-84
2024/03/19 09:37:36;;;;;;;2.67;0.90;;;19.60;99.90;;;;;;5120707;27;20814;-84
2024/03/19 09:40:03;;;;;;;0.93;0.70;;;19.60;99.90;;;;;;5121078;28;20939;-84
2024/03/19 09:42:30;;;;;;;0.90;0.90;;;19.50;99.90;;;;;;5120918;28;20446;-84
2024/03/19 09:44:57;;;;;;;0.80;0.70;;;19.70;99.90;;;;;;5120705;28;20477;-84
2024/03/19 09:47:26;;;;;;;0.60;0.60;;;19.70;99.90;;;;;;5120758;28;20469;-84
2024/03/19 09:49:54;;;;;;;0.90;0.60;;;19.60;99.90;;;;;;5120292;28;20451;-84
2024/03/19 09:52:22;;;;;;;0.70;0.70;;;19.20;99.90;;;;;;5123473;28;20447;-85
2024/03/19 09:54:49;;;;;;;1.20;1.07;;;19.10;99.90;;;;;;5128586;28;20561;-85
2024/03/19 09:57:19;;;;;;;0.70;0.70;;;19.90;99.90;;;;;;5124548;28;20481;-84
2024/03/19 09:59:46;;;;;;;0.57;0.57;;;20.90;99.90;;;;;;5112436;28;20842;-85
2024/03/19 10:02:17;;;;;;;1.20;1.10;;;21.60;99.90;;;;;;5104337;28;20449;-85
2024/03/19 10:04:46;;;;;;;0.63;0.63;;;21.70;99.90;;;;;;5103005;28;20912;-84
2024/03/19 10:07:15;;;;;;;0.70;0.70;;;21.80;99.90;;;;;;5102687;28;20892;-84
2024/03/19 10:09:44;;;;;;;0.70;0.70;;;21.50;99.90;;;;;;5103098;28;20512;-85
2024/03/19 10:12:11;;;;;;;0.60;0.60;;;21.30;99.90;;;;;;5101902;28;20908;-84
2024/03/19 10:14:38;;;;;;;1.23;0.90;;;21.30;99.90;;;;;;5101219;28;20976;-84
2024/03/19 10:17:06;;;;;;;0.90;0.80;;;21.50;99.90;;;;;;5102018;28;20439;-84
2024/03/19 10:19:34;;;;;;;0.60;0.60;;;22.10;99.90;;;;;;5101732;28;20467;-84
2024/03/19 10:22:01;;;;;;;7.20;0.70;;;22.60;99.90;;;;;;5101964;28;20449;-85
2024/03/19 10:24:29;;;;;;;0.60;0.60;;;23.20;99.90;;;;;;5101413;28;20431;-84
2024/03/19 10:26:55;;;;;;;0.60;0.60;;;23.60;99.90;;;;;;5101486;28;20220;-85
2024/03/19 10:29:22;;;;;;;1.05;0.75;;;24.00;99.90;;;;;;5101047;28;20605;-85
2024/03/19 10:31:49;;;;;;;0.68;0.68;;;24.80;99.90;;;;;;5100874;28;20206;-85
2024/03/19 10:34:18;;;;;;;0.60;0.60;;;25.30;99.90;;;;;;5100514;28;20217;-85
2024/03/19 10:36:48;;;;;;;0.68;0.68;;;25.20;99.90;;;;;;5100700;28;20262;-85
2024/03/19 10:39:16;;;;;;;1.13;0.70;;;24.20;99.90;;;;;;5101040;28;20209;-84
2024/03/19 10:41:46;;;;;;;1.03;0.93;;;23.70;99.90;;;;;;5100366;28;20196;-84
2024/03/19 10:44:16;;;;;;;0.63;0.63;;;23.80;99.90;;;;;;5100288;28;20479;-84
2024/03/19 10:46:43;;;;;;;0.50;0.50;;;24.30;99.90;;;;;;5100391;28;20185;-84
2024/03/19 10:49:15;;;;;;;1.00;0.70;;;24.90;99.90;;;;;;5101598;28;20279;-84
2024/03/19 10:51:43;;;;;;;0.80;0.55;;;26.20;98.70;;;;;;5100913;28;20182;-84
2024/03/19 10:54:12;;;;;;;0.63;0.63;;;26.00;96.10;;;;;;5099960;28;20229;-84
2024/03/19 10:56:39;;;;;;;1.70;0.60;;;25.30;97.30;;;;;;5100251;28;20561;-84
2024/03/19 10:59:12;;;;;;;0.77;0.60;;;24.70;96.60;;;;;;5099460;28;20233;-84
2024/03/19 11:01:45;;;;;;;2.35;0.70;;;24.70;97.60;;;;;;5100057;28;20181;-85
2024/03/19 11:04:13;;;;;;;0.60;0.60;;;25.20;96.40;;;;;;5100206;28;20190;-85
2024/03/19 11:06:40;;;;;;;0.60;0.60;;;25.80;96.00;;;;;;5099621;28;20197;-84
2024/03/19 11:09:19;;;;;;;0.50;0.50;;;25.80;95.60;;;;;;5099247;28;20713;-85
2024/03/19 11:11:50;;;;;;;0.50;0.50;;;25.60;93.60;;;;;;5099414;28;20225;-84
2024/03/19 11:14:19;;;;;;;0.40;0.40;;;24.40;94.30;;;;;;5099350;28;20205;-84
2024/03/19 11:16:46;;;;;;;1.40;0.80;;;23.10;95.40;;;;;;5098295;28;20227;-82
2024/03/19 11:19:18;;;;;;;0.60;0.60;;;22.00;95.60;;;;;;5095897;28;20219;-82
2024/03/19 11:21:46;;;;;;;0.60;0.60;;;21.00;97.20;;;;;;5096013;28;20209;-81
2024/03/19 11:24:22;;;;;;;0.50;0.50;;;20.20;98.70;;;;;;5098450;28;20552;-81
2024/03/19 11:26:52;;;;;;;0.50;0.50;;;19.40;99.50;;;;;;5096022;28;20888;-82
2024/03/19 11:29:23;;;;;;;0.60;0.60;;;18.80;99.90;;;;;;5096244;28;20486;-81
2024/03/19 11:31:50;;;;;;;0.60;0.60;;;18.30;99.90;;;;;;5096282;28;20438;-81
2024/03/19 11:34:16;;;;;;;0.40;0.40;;;18.00;99.90;;;;;;5095906;28;20814;-81
2024/03/19 11:36:48;;;;;;;1.47;0.70;;;17.60;99.90;;;;;;5095566;28;20444;-81
2024/03/19 11:39:15;;;;;;;0.50;0.50;;;17.20;99.90;;;;;;5095185;28;20476;-81
2024/03/19 11:41:43;;;;;;;0.83;0.60;;;17.10;99.90;;;;;;5096599;28;20440;-81
2024/03/19 11:44:14;;;;;;;1.23;0.80;;;17.00;99.90;;;;;;5100178;28;20431;-82
2024/03/19 11:46:42;;;;;;;0.50;0.50;;;17.00;99.90;;;;;;5097681;28;20438;-81
2024/03/19 11:49:21;;;;;;;1.43;0.50;;;17.10;99.90;;;;;;5096013;28;20446;-82
2024/03/19 11:51:55;;;;;;;0.70;0.60;;;17.40;99.90;;;;;;5096294;28;20416;-82
2024/03/19 11:54:22;;;;;;;2.27;0.70;;;17.60;99.90;;;;;;5096329;28;20468;-81
2024/03/19 11:56:52;;;;;;;0.97;0.73;;;17.70;99.90;;;;;;5095878;28;20444;-82
2024/03/19 11:59:19;;;;;;;0.90;0.70;;;17.80;99.90;;;;;;5095674;28;20480;-82
2024/03/19 12:01:51;;;;;;;0.93;0.80;;;17.80;99.90;;;;;;5096195;28;20448;-82
2024/03/19 12:04:19;;;;;;;1.43;1.33;;;17.80;99.90;;;;;;5095913;28;20428;-82
2024/03/19 12:06:47;;;;;;;0.73;0.70;;;17.70;99.90;;;;;;5096230;28;20437;-81
2024/03/19 12:09:13;;;;;;;0.60;0.60;;;17.70;99.90;;;;;;5095546;28;20499;-81
2024/03/19 12:11:41;;;;;;;1.03;0.93;;;17.60;99.90;;;;;;5095677;28;20443;-82
2024/03/19 12:14:12;;;;;;;0.80;0.70;;;17.70;99.90;;;;;;5095246;28;20475;-81
2024/03/19 12:16:39;;;;;;;0.77;0.50;;;17.60;99.90;;;;;;5095677;28;20428;-82
2024/03/19 12:19:08;;;;;;;0.80;0.70;;;17.60;99.90;;;;;;5095335;28;20490;-82
2024/03/19 12:21:40;;;;;;;0.60;0.60;;;17.70;99.90;;;;;;5095107;28;20436;-82
2024/03/19 12:24:09;;;;;;;0.70;0.60;;;17.80;99.90;;;;;;5095583;28;20416;-82
2024/03/19 12:26:36;;;;;;;3.23;0.73;;;17.80;99.90;;;;;;5096029;28;20436;-82
2024/03/19 12:29:06;;;;;;;0.87;0.80;;;17.70;99.90;;;;;;5095191;28;21011;-81
2024/03/19 12:31:36;;;;;;;0.93;0.83;;;17.80;99.90;;;;;;5095942;28;20450;-82
2024/03/19 12:34:16;;;;;;;0.80;0.80;;;17.90;99.90;;;;;;5095219;28;20436;-81
2024/03/19 12:36:44;;;;;;;4.20;2.13;;;17.90;99.90;;;;;;5095352;28;20444;-82
2024/03/19 12:39:12;;;;;;;2.30;1.20;;;18.00;99.90;;;;;;5094983;28;20530;-82
2024/03/19 12:41:39;;;;;;;4.90;1.93;;;18.00;99.90;;;;;;5095103;28;20874;-82
2024/03/19 12:44:06;;;;;;;0.90;0.90;;;17.90;99.90;;;;;;5096648;28;20455;-83
2024/03/19 12:46:32;;;;;;;1.50;1.40;;;17.70;99.90;;;;;;5097023;28;20949;-83
2024/03/19 12:48:59;;;;;;;5.23;1.97;;;17.40;99.90;;;;;;5096657;28;20546;-83
2024/03/19 12:51:26;;;;;;;1.13;0.83;;;17.20;99.90;;;;;;5097328;28;20474;-83
2024/03/19 12:53:54;;;;;;;0.93;0.87;;;17.00;99.90;;;;;;5096826;28;20451;-83
2024/03/19 12:56:20;;;;;;;4.00;1.63;;;16.80;99.90;;;;;;5096981;28;20451;-83